createdAt,value
2022-12-27T00:01:44.629Z,2.2
2022-12-27T00:08:04.579Z,2.2
2022-12-27T00:14:27.662Z,0.9
2022-12-27T00:20:47.697Z,0.9
2022-12-27T00:27:10.664Z,0.8
2022-12-27T00:33:30.663Z,0.8
2022-12-27T00:39:53.528Z,1.4
2022-12-27T00:46:13.629Z,1.4
2022-12-27T00:52:36.626Z,0.8
2022-12-27T00:58:56.753Z,0.8
2022-12-27T01:05:19.617Z,0.9
2022-12-27T01:11:39.546Z,0.9
2022-12-27T01:18:02.528Z,1.5
2022-12-27T01:24:22.673Z,1.5
2022-12-27T01:30:45.663Z,1.1
2022-12-27T01:37:05.877Z,1.1
2022-12-27T01:43:29.217Z,3
2022-12-27T01:49:49.505Z,3
2022-12-27T01:56:12.756Z,1.3
2022-12-27T02:02:32.706Z,1.3
2022-12-27T02:08:55.594Z,1.9
2022-12-27T02:15:15.537Z,1.9
2022-12-27T02:21:38.619Z,1.2
2022-12-27T02:27:58.668Z,1.2
2022-12-27T02:34:21.779Z,0.3
2022-12-27T02:40:41.681Z,0.3
2022-12-27T02:47:04.533Z,1.3
2022-12-27T02:53:24.533Z,1.3
2022-12-27T02:59:47.620Z,0.7
2022-12-27T03:06:07.580Z,0.7
2022-12-27T03:12:30.635Z,0.8
2022-12-27T03:18:50.522Z,0.8
2022-12-27T03:25:13.603Z,0.9
2022-12-27T03:31:33.553Z,0.9
2022-12-27T03:37:56.623Z,1.9
2022-12-27T03:44:16.559Z,1.9
2022-12-27T03:50:39.500Z,2
2022-12-27T03:56:59.685Z,2
2022-12-27T04:03:22.669Z,1.2
2022-12-27T04:09:42.700Z,1.2
2022-12-27T04:33:44.058Z,1.7
2022-12-27T04:40:03.482Z,1.7
2022-12-27T04:46:26.590Z,1.2
2022-12-27T04:52:46.551Z,1.2
2022-12-27T04:59:09.575Z,1
2022-12-27T05:05:29.570Z,1
2022-12-27T05:11:52.563Z,0.3
2022-12-27T05:18:12.680Z,0.3
2022-12-27T05:24:35.645Z,0.9
2022-12-27T05:30:55.651Z,0.9
2022-12-27T05:37:18.505Z,1.1
2022-12-27T05:43:38.635Z,1.1
2022-12-27T05:50:01.548Z,1.7
2022-12-27T05:56:21.488Z,1.7
2022-12-27T06:02:44.852Z,0.9
2022-12-27T06:09:04.636Z,0.9
2022-12-27T06:15:27.608Z,1.6
2022-12-27T06:21:47.516Z,1.6
2022-12-27T06:28:10.699Z,1.8
2022-12-27T06:34:30.666Z,1.8
2022-12-27T06:40:53.632Z,0.8
2022-12-27T06:47:13.597Z,0.8
2022-12-27T06:53:36.509Z,2.5
2022-12-27T06:59:56.600Z,2.5
2022-12-27T07:06:19.616Z,1
2022-12-27T07:12:39.522Z,1
2022-12-27T07:19:02.559Z,0.8
2022-12-27T07:25:22.553Z,0.8
2022-12-27T07:31:45.670Z,1.2
2022-12-27T07:38:05.523Z,1.2
2022-12-27T07:44:28.644Z,2.3
2022-12-27T07:50:48.671Z,2.3
2022-12-27T07:57:11.660Z,1.5
2022-12-27T08:03:31.561Z,1.5
2022-12-27T08:09:54.537Z,1
2022-12-27T08:16:14.692Z,1
2022-12-27T08:22:37.530Z,0.7
2022-12-27T08:28:57.550Z,0.7
2022-12-27T08:35:50.691Z,1.2
2022-12-27T08:41:40.805Z,1.2
2022-12-27T08:48:03.684Z,3
2022-12-27T08:54:23.611Z,3
2022-12-27T09:00:46.598Z,1.3
2022-12-27T09:07:06.530Z,1.3
2022-12-27T09:13:29.600Z,0.9
2022-12-27T09:19:49.576Z,0.9
2022-12-27T09:42:47.913Z,1.6
2022-12-27T09:48:39.678Z,1.6
2022-12-27T09:55:04.964Z,2.2
2022-12-27T10:01:22.653Z,2.2
2022-12-27T10:07:45.631Z,0.5
2022-12-27T10:14:05.651Z,0.5
2022-12-27T10:20:28.620Z,0.9
2022-12-27T10:26:48.637Z,0.9
2022-12-27T10:33:11.537Z,0.3
2022-12-27T10:39:31.691Z,0.3
2022-12-27T10:45:54.628Z,0.5
2022-12-27T10:52:14.662Z,0.5
2022-12-27T10:58:37.595Z,0.7
2022-12-27T11:04:57.511Z,0.7
2022-12-27T11:11:20.531Z,0.1
2022-12-27T11:17:40.579Z,0.1
2022-12-27T11:24:03.575Z,1.2
2022-12-27T11:30:23.548Z,1.2
2022-12-27T11:36:46.655Z,0.4
2022-12-27T11:43:06.559Z,0.4
2022-12-27T11:49:29.536Z,0.2
2022-12-27T11:55:49.674Z,0.2
2022-12-27T12:02:12.880Z,0.3
2022-12-27T12:08:32.498Z,0.3
2022-12-27T12:14:55.611Z,0.1
2022-12-27T12:21:15.593Z,0.1
2022-12-27T12:27:38.568Z,0.6
2022-12-27T12:33:58.613Z,0.6
2022-12-27T12:40:21.559Z,1.6
2022-12-27T12:46:41.895Z,1.6
2022-12-27T12:53:05.912Z,1.1
2022-12-27T12:59:25.558Z,1.1
2022-12-27T13:05:48.616Z,2.4
2022-12-27T13:12:08.553Z,2.4
2022-12-27T13:18:31.632Z,0.6
2022-12-27T13:24:51.747Z,0.6
2022-12-27T13:31:14.673Z,1.3
2022-12-27T13:37:34.583Z,1.3
2022-12-27T13:43:57.503Z,0.3
2022-12-27T13:50:17.852Z,0.3
2022-12-27T13:56:53.785Z,0.1
2022-12-27T14:03:00.656Z,0.1
2022-12-27T14:09:23.626Z,0.5
2022-12-27T14:15:43.568Z,0.5
2022-12-27T14:22:06.845Z,0.1
2022-12-27T14:28:26.651Z,0.1
2022-12-27T14:34:52.214Z,2.1
2022-12-27T14:50:56.344Z,0.6
2022-12-27T14:57:16.477Z,0.6
2022-12-27T15:03:41.528Z,2
2022-12-27T15:09:59.568Z,2
2022-12-27T15:16:22.829Z,2
2022-12-27T15:22:42.516Z,2
2022-12-27T15:29:05.650Z,1.6
2022-12-27T15:35:25.668Z,1.6
2022-12-27T15:41:48.660Z,1.6
2022-12-27T15:48:08.579Z,1.6
2022-12-27T15:54:32.023Z,0.8
2022-12-27T16:00:51.566Z,0.8
2022-12-27T16:07:14.684Z,1.9
2022-12-27T16:13:41.293Z,1.9
2022-12-27T16:19:57.490Z,1
2022-12-27T16:26:17.641Z,1
2022-12-27T16:32:40.621Z,1.9
2022-12-27T16:39:00.645Z,1.9
2022-12-27T16:45:23.668Z,1.6
2022-12-27T16:51:43.584Z,1.6
2022-12-27T16:58:06.685Z,0.8
2022-12-27T17:04:26.639Z,0.8
2022-12-27T17:10:49.706Z,1.4
2022-12-27T17:17:09.682Z,1.4
2022-12-27T17:23:32.971Z,2.5
2022-12-27T17:29:52.625Z,2.5
2022-12-27T17:36:15.585Z,1.1
2022-12-27T17:42:35.739Z,1.1
2022-12-27T17:48:58.636Z,1.3
2022-12-27T17:55:18.498Z,1.3
2022-12-27T18:01:41.647Z,2.7
2022-12-27T18:08:01.478Z,2.7
2022-12-27T18:14:24.649Z,1.2
2022-12-27T18:20:44.619Z,1.2
2022-12-27T18:27:07.619Z,0.6
2022-12-27T18:33:27.651Z,0.6
2022-12-27T18:39:50.632Z,1.8
2022-12-27T18:46:10.614Z,1.8
2022-12-27T18:52:33.593Z,4.1
2022-12-27T18:58:53.648Z,4.1
2022-12-27T19:05:16.624Z,2.2
2022-12-27T19:11:36.785Z,2.2
2022-12-27T19:17:59.596Z,1.2
2022-12-27T19:24:19.522Z,1.2
2022-12-27T19:30:42.516Z,2.1
2022-12-27T19:37:02.679Z,2.1
2022-12-27T20:00:18.528Z,3.5
2022-12-27T20:06:41.495Z,3.5
2022-12-27T20:13:01.696Z,3.5
2022-12-27T20:19:24.635Z,2.9
2022-12-27T20:25:44.591Z,2.9
2022-12-27T20:32:07.771Z,1.9
2022-12-27T20:38:27.541Z,1.9
2022-12-27T20:44:50.512Z,2.5
2022-12-27T20:51:10.553Z,2.5
2022-12-27T20:57:33.673Z,2.1
2022-12-27T21:03:53.646Z,2.1
2022-12-27T21:10:16.496Z,2.7
2022-12-27T21:16:36.790Z,2.7
2022-12-27T21:22:59.675Z,3
2022-12-27T21:29:19.531Z,3
2022-12-27T21:35:42.564Z,2.5
2022-12-27T21:42:02.509Z,2.5
2022-12-27T21:48:25.683Z,3.2
2022-12-27T21:54:45.792Z,3.2
2022-12-27T22:01:09.172Z,1.6
2022-12-27T22:07:28.672Z,1.6
2022-12-27T22:13:51.887Z,2.5
2022-12-27T22:20:11.867Z,2.5
2022-12-27T22:26:34.624Z,2.6
2022-12-27T22:32:54.525Z,2.6
2022-12-27T22:39:17.553Z,3.3
2022-12-27T22:45:37.599Z,3.3
2022-12-27T22:52:00.719Z,3.3
2022-12-27T22:58:20.614Z,3.3
2022-12-27T23:22:37.529Z,4.7
2022-12-27T23:28:57.511Z,4.7
2022-12-27T23:35:20.473Z,4.7
2022-12-27T23:41:40.569Z,4.7
2022-12-27T23:48:03.581Z,1.5
2022-12-27T23:54:23.661Z,1.5
